createdAt,value
2017-04-22T00:00:49.369Z,0
2017-04-22T00:01:59.687Z,0
2017-04-22T00:03:09.972Z,0
2017-04-22T00:04:19.896Z,0
2017-04-22T00:05:29.851Z,0
2017-04-22T00:06:40.138Z,0
2017-04-22T00:07:49.793Z,0
2017-04-22T00:09:00.068Z,0
2017-04-22T00:10:10.642Z,0
2017-04-22T00:11:20.915Z,0
2017-04-22T00:12:30.775Z,0
2017-04-22T00:13:41.066Z,0
2017-04-22T00:14:51.346Z,0
2017-04-22T00:16:01.893Z,0
2017-04-22T00:17:11.867Z,0
2017-04-22T00:18:21.836Z,0
2017-04-22T00:19:32.134Z,0
2017-04-22T00:20:42.105Z,0
2017-04-22T00:21:52.636Z,0
2017-04-22T00:23:02.605Z,0
2017-04-22T00:24:12.888Z,0
2017-04-22T00:25:23.193Z,0
2017-04-22T00:26:33.697Z,0
2017-04-22T00:27:43.919Z,0
2017-04-22T00:28:54.084Z,0
2017-04-22T00:30:04.060Z,0
2017-04-22T00:31:14.340Z,0
2017-04-22T00:32:24.299Z,0
2017-04-22T00:33:34.525Z,0
2017-04-22T00:34:44.513Z,0
2017-04-22T00:35:54.782Z,0
2017-04-22T00:37:04.741Z,0
2017-04-22T00:38:15.040Z,0
2017-04-22T00:39:25.663Z,0
2017-04-22T00:40:35.639Z,0
2017-04-22T00:41:45.914Z,0
2017-04-22T00:42:55.588Z,0
2017-04-22T00:44:05.889Z,0
2017-04-22T00:45:16.421Z,0
2017-04-22T00:46:26.700Z,0
2017-04-22T00:47:36.982Z,0
2017-04-22T00:48:47.269Z,0
2017-04-22T00:49:57.569Z,0
2017-04-22T00:51:08.111Z,0
2017-04-22T00:52:18.392Z,0
2017-04-22T00:53:28.360Z,0
2017-04-22T00:54:38.638Z,0
2017-04-22T00:55:48.609Z,0
2017-04-22T00:56:59.133Z,0
2017-04-22T00:58:09.416Z,0
2017-04-22T00:59:19.697Z,0
2017-04-22T01:00:29.982Z,0
2017-04-22T01:01:39.956Z,0
2017-04-22T01:02:50.526Z,0
2017-04-22T01:04:01.071Z,0
2017-04-22T01:05:11.357Z,0
2017-04-22T01:06:21.646Z,0
2017-04-22T01:07:31.934Z,0
2017-04-22T01:08:42.468Z,0
2017-04-22T01:09:52.752Z,0
2017-04-22T01:11:03.029Z,0
2017-04-22T01:12:13.304Z,0
2017-04-22T01:13:23.301Z,0
2017-04-22T01:14:33.841Z,0
2017-04-22T01:15:43.490Z,0
2017-04-22T01:16:53.776Z,0
2017-04-22T01:18:04.095Z,0
2017-04-22T01:19:14.415Z,0
2017-04-22T01:20:24.955Z,0
2017-04-22T01:21:35.243Z,0
2017-04-22T01:22:45.208Z,0
2017-04-22T01:23:55.506Z,0
2017-04-22T01:25:05.474Z,0
2017-04-22T01:26:16.005Z,0
2017-04-22T01:27:25.982Z,0
2017-04-22T01:28:36.272Z,0
2017-04-22T01:29:46.556Z,0
2017-04-22T01:30:56.827Z,0
2017-04-22T01:32:07.049Z,0
2017-04-22T01:33:17.339Z,0
2017-04-22T01:34:27.639Z,0
2017-04-22T01:35:37.604Z,0
2017-04-22T01:36:47.278Z,0
2017-04-22T01:37:57.821Z,0
2017-04-22T01:39:08.127Z,0
2017-04-22T01:40:18.626Z,0
2017-04-22T01:41:28.899Z,0
2017-04-22T01:42:39.079Z,0
2017-04-22T01:43:49.822Z,0
2017-04-22T01:45:00.102Z,0
2017-04-22T01:46:10.069Z,0
2017-04-22T01:47:19.733Z,0
2017-04-22T01:48:30.023Z,0
2017-04-22T01:49:40.547Z,0
2017-04-22T01:50:50.523Z,0
2017-04-22T01:52:00.801Z,0
2017-04-22T01:53:11.077Z,0
2017-04-22T01:54:21.366Z,0
2017-04-22T01:55:31.288Z,0
2017-04-22T01:56:41.573Z,0
2017-04-22T01:57:51.556Z,0
2017-04-22T01:59:01.533Z,0
2017-04-22T02:00:11.815Z,0
2017-04-22T02:01:22.376Z,0
2017-04-22T02:02:32.660Z,0
2017-04-22T02:03:42.929Z,0
2017-04-22T02:04:53.206Z,0
2017-04-22T02:06:03.477Z,0
2017-04-22T02:07:13.744Z,0
2017-04-22T02:08:23.713Z,0
2017-04-22T02:09:33.682Z,0
2017-04-22T02:10:43.970Z,0
2017-04-22T02:11:54.243Z,0
2017-04-22T02:13:04.462Z,0
2017-04-22T02:14:14.743Z,0
2017-04-22T02:15:24.715Z,0
2017-04-22T02:16:34.990Z,0
2017-04-22T02:17:44.962Z,0
2017-04-22T02:18:55.673Z,0
2017-04-22T02:20:05.969Z,0
2017-04-22T02:21:16.105Z,0
2017-04-22T02:22:26.387Z,0
2017-04-22T02:23:36.666Z,0
2017-04-22T02:24:47.193Z,0
2017-04-22T02:25:57.151Z,0
2017-04-22T02:27:07.128Z,0
2017-04-22T02:28:16.808Z,0
2017-04-22T02:29:27.104Z,0
2017-04-22T02:30:37.329Z,0
2017-04-22T02:31:47.603Z,0
2017-04-22T02:32:57.579Z,0
2017-04-22T02:34:07.861Z,0
2017-04-22T02:35:18.143Z,0
2017-04-22T02:36:28.672Z,0
2017-04-22T02:37:38.945Z,0
2017-04-22T02:38:49.235Z,0
2017-04-22T02:39:59.510Z,0
2017-04-22T02:41:09.785Z,0
2017-04-22T02:42:20.366Z,0
2017-04-22T02:43:30.651Z,0
2017-04-22T02:44:40.933Z,0
2017-04-22T02:45:51.212Z,0
2017-04-22T02:47:01.488Z,0
2017-04-22T02:48:11.759Z,0
2017-04-22T02:49:22.040Z,0
2017-04-22T02:50:32.340Z,0
2017-04-22T02:51:42.628Z,0
2017-04-22T02:52:52.904Z,0
2017-04-22T02:54:03.127Z,0
2017-04-22T02:55:12.979Z,0
2017-04-22T02:56:23.580Z,0
2017-04-22T02:57:34.058Z,0
2017-04-22T02:58:44.344Z,0
2017-04-22T02:59:54.609Z,0
2017-04-22T03:01:04.884Z,0
2017-04-22T03:02:15.169Z,0
2017-04-22T03:03:25.450Z,0
2017-04-22T03:04:35.726Z,0
2017-04-22T03:05:46.298Z,0
2017-04-22T03:06:56.574Z,0
2017-04-22T03:08:06.547Z,0
2017-04-22T03:09:16.522Z,0
2017-04-22T03:10:26.808Z,0
2017-04-22T03:11:37.346Z,0
2017-04-22T03:12:47.646Z,0
2017-04-22T03:13:57.915Z,0
2017-04-22T03:15:07.883Z,0
2017-04-22T03:16:18.167Z,0
2017-04-22T03:17:28.752Z,0
2017-04-22T03:18:38.722Z,0
2017-04-22T03:19:49.005Z,0
2017-04-22T03:20:58.971Z,0
2017-04-22T03:22:08.941Z,0
2017-04-22T03:23:19.149Z,0
2017-04-22T03:24:29.144Z,0
2017-04-22T03:25:39.417Z,0
2017-04-22T03:26:49.383Z,0
2017-04-22T03:27:59.342Z,0
2017-04-22T03:29:10.298Z,0
2017-04-22T03:30:20.585Z,0
2017-04-22T03:31:30.247Z,0
2017-04-22T03:32:40.217Z,0
2017-04-22T03:33:50.181Z,0
2017-04-22T03:35:00.403Z,0
2017-04-22T03:36:10.362Z,0
2017-04-22T03:37:20.642Z,0
2017-04-22T03:38:30.616Z,0
2017-04-22T03:39:40.889Z,0
2017-04-22T03:40:51.425Z,0
2017-04-22T03:42:01.719Z,0
2017-04-22T03:43:11.993Z,0
2017-04-22T03:44:22.290Z,0
2017-04-22T03:45:32.567Z,0
2017-04-22T03:46:43.095Z,0
2017-04-22T03:47:53.562Z,0
2017-04-22T03:49:03.537Z,0
2017-04-22T03:50:13.821Z,4
2017-04-22T03:51:24.099Z,4
2017-04-22T03:52:34.361Z,4
2017-04-22T03:53:44.024Z,0
2017-04-22T03:54:53.988Z,0
2017-04-22T03:56:04.267Z,4
2017-04-22T03:57:14.540Z,4
2017-04-22T03:58:24.446Z,4
2017-04-22T03:59:34.801Z,4
2017-04-22T04:00:44.764Z,4
2017-04-22T04:01:55.131Z,4
2017-04-22T04:03:05.429Z,4
2017-04-22T04:04:15.955Z,4
2017-04-22T04:05:26.250Z,4
2017-04-22T04:06:36.528Z,4
2017-04-22T04:07:47.102Z,4
2017-04-22T04:08:57.062Z,4
2017-04-22T04:10:07.639Z,4
2017-04-22T04:11:17.635Z,4
2017-04-22T04:12:27.605Z,4
2017-04-22T04:13:37.575Z,8
2017-04-22T04:14:47.232Z,4
2017-04-22T04:15:57.482Z,8
2017-04-22T04:17:07.617Z,8
2017-04-22T04:18:17.907Z,8
2017-04-22T04:19:28.190Z,8
2017-04-22T04:20:38.467Z,8
2017-04-22T04:21:48.705Z,12
2017-04-22T04:22:58.977Z,12
2017-04-22T04:24:09.260Z,8
2017-04-22T04:25:19.539Z,12
2017-04-22T04:26:29.719Z,12
2017-04-22T04:27:40.253Z,12
2017-04-22T04:28:50.540Z,12
2017-04-22T04:30:00.196Z,12
2017-04-22T04:31:10.476Z,12
2017-04-22T04:32:20.438Z,12
2017-04-22T04:33:30.959Z,12
2017-04-22T04:34:41.243Z,12
2017-04-22T04:35:51.517Z,16
2017-04-22T04:37:01.504Z,16
2017-04-22T04:38:11.470Z,20
2017-04-22T04:39:22.009Z,16
2017-04-22T04:40:32.292Z,16
2017-04-22T04:41:42.262Z,20
2017-04-22T04:42:52.233Z,28
2017-04-22T04:44:02.507Z,68
2017-04-22T04:45:13.033Z,40
2017-04-22T04:46:22.999Z,76
2017-04-22T04:47:33.277Z,40
2017-04-22T04:48:43.547Z,40
2017-04-22T04:49:53.957Z,28
2017-04-22T04:51:04.702Z,28
2017-04-22T04:52:14.617Z,24
2017-04-22T04:53:24.898Z,16
2017-04-22T04:54:35.204Z,16
2017-04-22T04:55:45.188Z,20
2017-04-22T04:56:55.718Z,20
2017-04-22T04:58:05.066Z,20
2017-04-22T04:59:15.027Z,20
2017-04-22T05:00:25.022Z,20
2017-04-22T05:01:35.304Z,20
2017-04-22T05:02:45.545Z,20
2017-04-22T05:03:55.834Z,20
2017-04-22T05:05:06.113Z,16
2017-04-22T05:06:16.386Z,16
2017-04-22T05:07:26.953Z,16
2017-04-22T05:08:37.626Z,20
2017-04-22T05:09:47.590Z,20
2017-04-22T05:10:58.032Z,16
2017-04-22T05:12:08.318Z,16
2017-04-22T05:13:18.605Z,16
2017-04-22T05:14:29.155Z,16
2017-04-22T05:15:39.121Z,16
2017-04-22T05:16:49.403Z,16
2017-04-22T05:17:59.677Z,16
2017-04-22T05:19:09.955Z,20
2017-04-22T05:20:20.484Z,20
2017-04-22T05:21:30.765Z,20
2017-04-22T05:22:41.053Z,24
2017-04-22T05:23:51.369Z,24
2017-04-22T05:25:01.643Z,20
2017-04-22T05:26:12.268Z,20
2017-04-22T05:27:22.559Z,20
2017-04-22T05:28:32.835Z,24
2017-04-22T05:29:42.981Z,24
2017-04-22T05:30:53.275Z,24
2017-04-22T05:32:03.181Z,24
2017-04-22T05:33:13.564Z,24
2017-04-22T05:34:23.850Z,20
2017-04-22T05:35:33.815Z,20
2017-04-22T05:36:43.810Z,16
2017-04-22T05:37:54.347Z,20
2017-04-22T05:39:04.655Z,24
2017-04-22T05:40:14.624Z,24
2017-04-22T05:41:24.598Z,28
2017-04-22T05:42:34.872Z,28
2017-04-22T05:43:45.089Z,44
2017-04-22T05:44:55.375Z,52
2017-04-22T05:46:05.023Z,36
2017-04-22T05:47:15.312Z,40
2017-04-22T05:48:25.595Z,44
2017-04-22T05:49:36.243Z,32
2017-04-22T05:50:46.225Z,32
2017-04-22T05:51:56.506Z,28
2017-04-22T05:53:06.794Z,32
2017-04-22T05:54:16.448Z,40
2017-04-22T05:55:26.981Z,40
2017-04-22T05:56:37.259Z,40
2017-04-22T05:57:47.531Z,128
2017-04-22T05:58:57.520Z,44
2017-04-22T06:00:07.808Z,124
2017-04-22T06:01:18.334Z,44
2017-04-22T06:02:28.784Z,48
2017-04-22T06:03:39.200Z,52
2017-04-22T06:04:49.509Z,52
2017-04-22T06:05:59.480Z,48
2017-04-22T06:07:10.011Z,64
2017-04-22T06:08:20.291Z,84
2017-04-22T06:09:29.960Z,72
2017-04-22T06:10:40.251Z,56
2017-04-22T06:11:50.215Z,136
2017-04-22T06:13:00.442Z,112
2017-04-22T06:14:10.728Z,64
2017-04-22T06:15:20.755Z,100
2017-04-22T06:16:31.091Z,132
2017-04-22T06:17:41.363Z,136
2017-04-22T06:18:51.613Z,136
2017-04-22T06:20:01.577Z,52
2017-04-22T06:21:11.548Z,60
2017-04-22T06:22:21.828Z,128
2017-04-22T06:23:32.105Z,84
2017-04-22T06:24:42.644Z,128
2017-04-22T06:25:52.615Z,84
2017-04-22T06:27:02.595Z,128
2017-04-22T06:28:12.247Z,56
2017-04-22T06:29:22.233Z,124
2017-04-22T06:30:32.497Z,128
2017-04-22T06:31:42.857Z,60
2017-04-22T06:32:53.153Z,108
2017-04-22T06:34:03.446Z,88
2017-04-22T06:35:13.793Z,76
2017-04-22T06:36:24.017Z,68
2017-04-22T06:37:34.206Z,56
2017-04-22T06:38:44.226Z,88
2017-04-22T06:39:54.573Z,84
2017-04-22T06:41:04.848Z,112
2017-04-22T06:42:15.383Z,116
2017-04-22T06:43:25.348Z,52
2017-04-22T06:44:35.642Z,76
2017-04-22T06:45:45.739Z,108
2017-04-22T06:46:56.021Z,120
2017-04-22T06:48:06.553Z,116
2017-04-22T06:49:16.842Z,52
2017-04-22T06:50:27.150Z,44
2017-04-22T06:51:37.423Z,44
2017-04-22T06:52:47.713Z,44
2017-04-22T06:53:57.641Z,40
2017-04-22T06:55:07.619Z,40
2017-04-22T06:56:17.953Z,32
2017-04-22T06:57:27.915Z,28
2017-04-22T06:58:38.192Z,28
2017-04-22T06:59:48.461Z,28
2017-04-22T07:00:58.425Z,24
2017-04-22T07:02:08.741Z,28
2017-04-22T07:03:18.402Z,24
2017-04-22T07:04:28.705Z,28
2017-04-22T07:05:39.289Z,28
2017-04-22T07:06:49.575Z,32
2017-04-22T07:07:59.558Z,40
2017-04-22T07:09:09.526Z,40
2017-04-22T07:10:19.826Z,44
2017-04-22T07:11:30.374Z,36
2017-04-22T07:12:40.652Z,32
2017-04-22T07:13:50.620Z,28
2017-04-22T07:15:01.020Z,28
2017-04-22T07:16:11.308Z,24
2017-04-22T07:17:22.060Z,20
2017-04-22T07:18:32.044Z,24
2017-04-22T07:19:42.663Z,32
2017-04-22T07:20:52.946Z,36
2017-04-22T07:22:03.086Z,32
2017-04-22T07:23:13.320Z,32
2017-04-22T07:24:23.593Z,32
2017-04-22T07:25:33.992Z,36
2017-04-22T07:26:44.277Z,40
2017-04-22T07:27:54.561Z,44
2017-04-22T07:29:04.474Z,44
2017-04-22T07:30:14.134Z,48
2017-04-22T07:31:24.404Z,44
2017-04-22T07:32:34.386Z,44
2017-04-22T07:33:44.363Z,68
2017-04-22T07:34:54.616Z,36
2017-04-22T07:36:04.904Z,36
2017-04-22T07:37:14.868Z,32
2017-04-22T07:38:24.857Z,32
2017-04-22T07:39:34.833Z,32
2017-04-22T07:40:45.054Z,36
2017-04-22T07:41:55.354Z,36
2017-04-22T07:43:05.329Z,32
2017-04-22T07:44:15.627Z,28
2017-04-22T07:45:25.905Z,28
2017-04-22T07:46:36.434Z,28
2017-04-22T07:47:46.092Z,28
2017-04-22T07:48:56.271Z,28
2017-04-22T07:50:06.663Z,28
2017-04-22T07:51:16.980Z,20
2017-04-22T07:52:31.572Z,20
2017-04-22T07:53:41.540Z,20
2017-04-22T07:54:51.828Z,24
2017-04-22T07:56:02.113Z,20
2017-04-22T07:57:12.390Z,24
2017-04-22T07:58:22.308Z,28
2017-04-22T07:59:32.599Z,32
2017-04-22T08:00:42.882Z,40
2017-04-22T08:01:53.165Z,40
2017-04-22T08:03:03.148Z,36
2017-04-22T08:04:13.686Z,32
2017-04-22T08:05:23.973Z,32
2017-04-22T08:06:33.638Z,28
2017-04-22T08:07:43.613Z,24
2017-04-22T08:08:53.901Z,28
2017-04-22T08:10:04.443Z,32
2017-04-22T08:11:14.103Z,36
2017-04-22T08:12:24.083Z,40
2017-04-22T08:13:34.377Z,48
2017-04-22T08:14:44.362Z,52
2017-04-22T08:15:54.943Z,60
2017-04-22T08:17:05.241Z,60
2017-04-22T08:18:15.524Z,60
2017-04-22T08:19:25.816Z,56
2017-04-22T08:20:36.203Z,52
2017-04-22T08:21:46.938Z,48
2017-04-22T08:22:57.253Z,44
2017-04-22T08:24:07.218Z,40
2017-04-22T08:25:16.897Z,40
2017-04-22T08:26:27.184Z,36
2017-04-22T08:27:37.411Z,32
2017-04-22T08:28:47.400Z,32
2017-04-22T08:29:57.695Z,32
2017-04-22T08:31:07.976Z,36
2017-04-22T08:32:17.961Z,40
2017-04-22T08:33:28.508Z,56
2017-04-22T08:34:38.791Z,44
2017-04-22T08:35:49.072Z,40
2017-04-22T08:36:59.360Z,36
2017-04-22T08:38:09.640Z,36
2017-04-22T08:39:19.925Z,36
2017-04-22T08:40:30.221Z,32
2017-04-22T08:41:40.510Z,28
2017-04-22T08:42:50.800Z,24
2017-04-22T08:44:00.779Z,28
2017-04-22T08:45:10.689Z,28
2017-04-22T08:46:20.666Z,24
2017-04-22T08:47:30.649Z,24
2017-04-22T08:48:40.623Z,24
2017-04-22T08:49:50.907Z,24
2017-04-22T08:51:03.785Z,28
2017-04-22T08:52:13.769Z,24
2017-04-22T08:53:24.050Z,24
2017-04-22T08:54:34.337Z,24
2017-04-22T08:55:44.630Z,20
2017-04-22T08:56:55.209Z,20
2017-04-22T08:58:05.507Z,24
2017-04-22T08:59:15.784Z,28
2017-04-22T09:00:25.763Z,28
2017-04-22T09:01:35.447Z,32
2017-04-22T09:02:45.983Z,36
2017-04-22T09:03:56.275Z,40
2017-04-22T09:05:06.254Z,44
2017-04-22T09:06:16.566Z,48
2017-04-22T09:07:26.869Z,68
2017-04-22T09:08:37.427Z,56
2017-04-22T09:09:47.729Z,60
2017-04-22T09:10:57.707Z,64
2017-04-22T09:12:07.694Z,60
2017-04-22T09:13:17.993Z,60
2017-04-22T09:14:28.527Z,56
2017-04-22T09:15:38.801Z,60
2017-04-22T09:16:48.477Z,56
2017-04-22T09:17:58.773Z,60
2017-04-22T09:19:09.097Z,56
2017-04-22T09:20:19.636Z,104
2017-04-22T09:21:29.946Z,104
2017-04-22T09:22:40.261Z,96
2017-04-22T09:23:50.252Z,100
2017-04-22T09:25:00.250Z,96
2017-04-22T09:26:10.837Z,100
2017-04-22T09:27:21.132Z,108
2017-04-22T09:28:31.430Z,72
2017-04-22T09:29:41.745Z,48
2017-04-22T09:30:52.049Z,36
2017-04-22T09:32:02.619Z,32
2017-04-22T09:33:12.956Z,28
2017-04-22T09:34:22.963Z,24
2017-04-22T09:35:33.254Z,20
2017-04-22T09:36:43.231Z,16
2017-04-22T09:37:53.847Z,20
2017-04-22T09:39:04.168Z,16
2017-04-22T09:40:14.462Z,16
2017-04-22T09:41:24.765Z,16
2017-04-22T09:42:35.077Z,16
2017-04-22T09:43:45.321Z,16
2017-04-22T09:44:55.622Z,20
2017-04-22T09:46:05.764Z,20
2017-04-22T09:47:15.735Z,24
2017-04-22T09:48:25.124Z,24
2017-04-22T09:49:35.382Z,28
2017-04-22T09:50:45.369Z,32
2017-04-22T09:51:55.763Z,36
2017-04-22T09:53:05.458Z,44
2017-04-22T09:54:15.763Z,48
2017-04-22T09:55:26.336Z,56
2017-04-22T09:56:36.326Z,96
2017-04-22T09:57:46.307Z,56
2017-04-22T09:58:56.626Z,108
2017-04-22T10:00:06.961Z,108
2017-04-22T10:01:17.516Z,120
2017-04-22T10:02:27.517Z,124
2017-04-22T10:03:37.493Z,72
2017-04-22T10:04:47.503Z,56
2017-04-22T10:05:57.182Z,52
2017-04-22T10:07:07.425Z,48
2017-04-22T10:08:17.728Z,44
2017-04-22T10:09:27.713Z,40
2017-04-22T10:10:37.997Z,44
2017-04-22T10:11:48.347Z,40
2017-04-22T10:12:58.949Z,40
2017-04-22T10:14:09.242Z,40
2017-04-22T10:15:19.527Z,44
2017-04-22T10:16:29.998Z,48
2017-04-22T10:17:40.300Z,48
2017-04-22T10:18:50.747Z,48
2017-04-22T10:20:00.429Z,52
2017-04-22T10:21:10.458Z,56
2017-04-22T10:22:20.435Z,60
2017-04-22T10:23:30.571Z,60
2017-04-22T10:24:40.834Z,60
2017-04-22T10:25:50.843Z,60
2017-04-22T10:27:00.812Z,60
2017-04-22T10:28:11.156Z,64
2017-04-22T10:29:21.171Z,64
2017-04-22T10:30:31.441Z,68
2017-04-22T10:31:41.757Z,60
2017-04-22T10:32:52.087Z,60
2017-04-22T10:34:02.088Z,80
2017-04-22T10:35:12.383Z,64
2017-04-22T10:36:22.950Z,64
2017-04-22T10:37:33.242Z,72
2017-04-22T10:38:43.541Z,68
2017-04-22T10:39:53.873Z,72
2017-04-22T10:41:04.208Z,92
2017-04-22T10:42:14.760Z,84
2017-04-22T10:43:24.736Z,84
2017-04-22T10:44:34.716Z,60
2017-04-22T10:45:44.999Z,84
2017-04-22T10:46:54.992Z,100
2017-04-22T10:48:05.208Z,96
2017-04-22T10:49:15.202Z,96
2017-04-22T10:50:25.495Z,96
2017-04-22T10:51:35.811Z,92
2017-04-22T10:52:45.788Z,96
2017-04-22T10:53:56.335Z,104
2017-04-22T10:55:06.007Z,104
2017-04-22T10:56:16.314Z,104
2017-04-22T10:57:26.610Z,104
2017-04-22T10:58:36.913Z,108
2017-04-22T10:59:47.499Z,112
2017-04-22T11:00:57.801Z,92
2017-04-22T11:02:07.908Z,64
2017-04-22T11:03:17.905Z,60
2017-04-22T11:04:27.940Z,92
2017-04-22T11:05:38.487Z,60
2017-04-22T11:06:48.460Z,72
2017-04-22T11:07:58.443Z,92
2017-04-22T11:09:08.436Z,44
2017-04-22T11:10:18.728Z,36
2017-04-22T11:11:29.368Z,40
2017-04-22T11:12:39.777Z,36
2017-04-22T11:13:49.142Z,36
2017-04-22T11:14:59.435Z,36
2017-04-22T11:16:09.729Z,44
2017-04-22T11:17:20.268Z,92
2017-04-22T11:18:30.577Z,92
2017-04-22T11:19:40.862Z,88
2017-04-22T11:20:50.860Z,88
2017-04-22T11:22:01.167Z,88
2017-04-22T11:23:11.411Z,88
2017-04-22T11:24:21.698Z,88
2017-04-22T11:25:32.012Z,88
2017-04-22T11:26:42.338Z,92
2017-04-22T11:27:52.641Z,96
2017-04-22T11:29:02.879Z,100
2017-04-22T11:30:12.859Z,52
2017-04-22T11:31:23.145Z,92
2017-04-22T11:32:33.124Z,100
2017-04-22T11:33:43.102Z,100
2017-04-22T11:34:53.328Z,100
2017-04-22T11:36:03.328Z,56
2017-04-22T11:37:13.630Z,52
2017-04-22T11:38:23.613Z,52
2017-04-22T11:39:33.926Z,52
2017-04-22T11:40:44.471Z,72
2017-04-22T11:41:54.128Z,56
2017-04-22T11:43:04.106Z,48
2017-04-22T11:44:14.409Z,52
2017-04-22T11:45:24.717Z,64
2017-04-22T11:46:35.291Z,52
2017-04-22T11:47:45.675Z,56
2017-04-22T11:48:55.975Z,44
2017-04-22T11:50:05.963Z,52
2017-04-22T11:51:15.940Z,76
2017-04-22T11:52:25.869Z,80
2017-04-22T11:53:36.169Z,88
2017-04-22T11:54:46.466Z,92
2017-04-22T11:55:56.431Z,92
2017-04-22T11:57:06.404Z,100
2017-04-22T11:58:16.371Z,100
2017-04-22T11:59:26.681Z,100
2017-04-22T12:00:36.662Z,104
2017-04-22T12:01:46.640Z,76
2017-04-22T12:02:56.930Z,104
2017-04-22T12:04:07.545Z,64
2017-04-22T12:05:17.212Z,100
2017-04-22T12:06:26.890Z,100
2017-04-22T12:07:36.873Z,100
2017-04-22T12:08:47.159Z,96
2017-04-22T12:09:57.091Z,60
2017-04-22T12:11:07.079Z,92
2017-04-22T12:12:17.373Z,48
2017-04-22T12:13:27.667Z,88
2017-04-22T12:14:37.338Z,88
2017-04-22T12:15:47.572Z,64
2017-04-22T12:16:57.547Z,80
2017-04-22T12:18:07.831Z,56
2017-04-22T12:19:18.176Z,52
2017-04-22T12:20:28.164Z,52
2017-04-22T12:21:38.387Z,52
2017-04-22T12:22:48.044Z,52
2017-04-22T12:23:58.332Z,88
2017-04-22T12:25:07.999Z,52
2017-04-22T12:26:18.287Z,92
2017-04-22T12:27:28.502Z,88
2017-04-22T12:28:38.784Z,60
2017-04-22T12:29:49.091Z,68
2017-04-22T12:30:59.072Z,48
2017-04-22T12:32:09.371Z,48
2017-04-22T12:33:19.631Z,52
2017-04-22T12:34:29.916Z,76
2017-04-22T12:35:39.893Z,84
2017-04-22T12:36:50.224Z,56
2017-04-22T12:38:00.210Z,52
2017-04-22T12:39:10.502Z,52
2017-04-22T12:40:20.173Z,92
2017-04-22T12:41:30.163Z,92
2017-04-22T12:42:40.470Z,84
2017-04-22T12:43:50.470Z,48
2017-04-22T12:45:01.076Z,56
2017-04-22T12:46:11.366Z,52
2017-04-22T12:47:21.670Z,56
2017-04-22T12:48:31.997Z,52
2017-04-22T12:49:42.278Z,44
2017-04-22T12:50:52.817Z,48
2017-04-22T12:52:02.814Z,44
2017-04-22T12:53:12.479Z,48
2017-04-22T12:54:22.590Z,48
2017-04-22T12:55:32.881Z,44
2017-04-22T12:56:43.116Z,84
2017-04-22T12:57:53.593Z,76
2017-04-22T12:59:04.090Z,56
2017-04-22T13:00:14.100Z,60
2017-04-22T13:01:24.079Z,52
2017-04-22T13:02:34.680Z,72
2017-04-22T13:03:44.985Z,52
2017-04-22T13:04:55.288Z,76
2017-04-22T13:06:05.294Z,80
2017-04-22T13:07:15.598Z,84
2017-04-22T13:08:25.840Z,80
2017-04-22T13:09:35.515Z,84
2017-04-22T13:10:45.803Z,52
2017-04-22T13:11:55.805Z,60
2017-04-22T13:13:05.862Z,48
2017-04-22T13:14:16.580Z,48
2017-04-22T13:15:26.600Z,52
2017-04-22T13:16:36.601Z,64
2017-04-22T13:17:46.946Z,48
2017-04-22T13:18:57.255Z,44
2017-04-22T13:20:07.795Z,36
2017-04-22T13:21:17.800Z,32
2017-04-22T13:22:28.093Z,32
2017-04-22T13:23:38.385Z,28
2017-04-22T13:24:48.059Z,32
2017-04-22T13:25:58.619Z,36
2017-04-22T13:27:08.942Z,40
2017-04-22T13:28:19.263Z,48
2017-04-22T13:29:29.257Z,44
2017-04-22T13:30:39.573Z,60
2017-04-22T13:31:49.880Z,48
2017-04-22T13:33:00.184Z,40
2017-04-22T13:34:10.517Z,32
2017-04-22T13:35:20.816Z,28
2017-04-22T13:36:30.520Z,20
2017-04-22T13:37:41.076Z,16
2017-04-22T13:38:51.161Z,12
2017-04-22T13:40:01.474Z,12
2017-04-22T13:41:11.471Z,12
2017-04-22T13:42:21.841Z,12
2017-04-22T13:43:32.387Z,12
2017-04-22T13:44:42.388Z,16
2017-04-22T13:45:52.410Z,28
2017-04-22T13:47:02.436Z,36
2017-04-22T13:48:12.437Z,36
2017-04-22T13:49:23.050Z,56
2017-04-22T13:50:32.721Z,56
2017-04-22T13:51:42.741Z,44
2017-04-22T13:52:52.778Z,56
2017-04-22T13:54:02.465Z,44
2017-04-22T13:55:13.080Z,32
2017-04-22T13:56:23.387Z,32
2017-04-22T13:57:33.733Z,28
2017-04-22T13:58:44.040Z,36
2017-04-22T13:59:54.050Z,48
2017-04-22T14:01:04.721Z,40
2017-04-22T14:02:15.044Z,36
2017-04-22T14:03:25.040Z,36
2017-04-22T14:04:35.358Z,36
2017-04-22T14:05:45.704Z,36
2017-04-22T14:06:56.265Z,40
2017-04-22T14:08:06.620Z,36
2017-04-22T14:09:16.620Z,28
2017-04-22T14:10:26.642Z,28
2017-04-22T14:11:36.636Z,28
2017-04-22T14:12:46.938Z,24
2017-04-22T14:13:57.265Z,28
2017-04-22T14:15:07.594Z,24
2017-04-22T14:16:17.584Z,24
2017-04-22T14:17:28.042Z,20
2017-04-22T14:18:38.506Z,20
2017-04-22T14:19:48.813Z,16
2017-04-22T14:20:59.132Z,12
2017-04-22T14:22:09.435Z,16
2017-04-22T14:23:19.492Z,16
2017-04-22T14:24:30.064Z,16
2017-04-22T14:25:40.513Z,16
2017-04-22T14:26:50.516Z,12
2017-04-22T14:28:00.656Z,16
2017-04-22T14:29:10.675Z,16
2017-04-22T14:30:20.775Z,16
2017-04-22T14:31:30.824Z,24
2017-04-22T14:32:40.847Z,24
2017-04-22T14:33:51.181Z,28
2017-04-22T14:35:01.472Z,28
2017-04-22T14:36:11.637Z,36
2017-04-22T14:37:21.662Z,40
2017-04-22T14:38:31.967Z,40
2017-04-22T14:39:42.304Z,56
2017-04-22T14:40:51.988Z,56
2017-04-22T14:42:02.372Z,52
2017-04-22T14:43:12.366Z,52
2017-04-22T14:44:22.705Z,48
2017-04-22T14:45:33.033Z,52
2017-04-22T14:46:43.458Z,48
2017-04-22T14:47:53.899Z,48
2017-04-22T14:49:03.708Z,44
2017-04-22T14:50:14.213Z,44
2017-04-22T14:51:24.232Z,44
2017-04-22T14:52:34.252Z,44
2017-04-22T14:53:44.810Z,44
2017-04-22T14:54:55.138Z,44
2017-04-22T14:56:05.466Z,48
2017-04-22T14:57:15.494Z,44
2017-04-22T14:58:26.072Z,40
2017-04-22T14:59:37.033Z,36
2017-04-22T15:00:47.331Z,32
2017-04-22T15:01:57.480Z,32
2017-04-22T15:03:08.351Z,36
2017-04-22T15:04:18.983Z,28
2017-04-22T15:05:29.672Z,24
2017-04-22T15:06:39.830Z,24
2017-04-22T15:07:51.038Z,32
2017-04-22T15:09:01.508Z,28
2017-04-22T15:10:12.078Z,20
2017-04-22T15:11:22.870Z,28
2017-04-22T15:12:33.555Z,16
2017-04-22T15:13:44.262Z,16
2017-04-22T15:14:54.860Z,12
2017-04-22T15:16:05.180Z,12
2017-04-22T15:17:16.120Z,16
2017-04-22T15:18:27.123Z,28
2017-04-22T15:19:37.771Z,24
2017-04-22T15:20:48.454Z,28
2017-04-22T15:21:59.407Z,28
2017-04-22T15:23:09.926Z,24
2017-04-22T15:24:20.635Z,24
2017-04-22T15:25:31.561Z,20
2017-04-22T15:26:42.349Z,16
2017-04-22T15:27:52.282Z,16
2017-04-22T15:29:03.013Z,20
2017-04-22T15:30:13.352Z,16
2017-04-22T15:31:24.497Z,16
2017-04-22T15:32:35.334Z,16
2017-04-22T15:33:46.331Z,16
2017-04-22T15:34:57.419Z,16
2017-04-22T15:36:08.531Z,12
2017-04-22T15:37:19.456Z,12
2017-04-22T15:38:30.785Z,12
2017-04-22T15:39:45.108Z,12
2017-04-22T15:40:56.834Z,12
2017-04-22T15:42:07.892Z,8
2017-04-22T15:43:21.290Z,8
2017-04-22T15:44:33.598Z,8
2017-04-22T15:45:45.802Z,4
2017-04-22T15:46:56.932Z,4
2017-04-22T15:48:07.897Z,0
2017-04-22T15:49:19.759Z,4
2017-04-22T15:50:30.965Z,4
2017-04-22T15:51:42.064Z,8
2017-04-22T15:52:52.897Z,12
2017-04-22T15:54:03.489Z,20
2017-04-22T15:55:14.677Z,32
2017-04-22T15:56:25.391Z,32
2017-04-22T15:57:36.635Z,32
2017-04-22T15:58:48.120Z,24
2017-04-22T15:59:59.333Z,24
2017-04-22T16:01:10.492Z,24
2017-04-22T16:02:21.079Z,28
2017-04-22T16:03:31.692Z,24
2017-04-22T16:04:42.090Z,28
2017-04-22T16:05:52.766Z,32
2017-04-22T16:07:03.778Z,28
2017-04-22T16:08:14.681Z,28
2017-04-22T16:09:25.875Z,28
2017-04-22T16:10:37.295Z,28
2017-04-22T16:11:48.333Z,24
2017-04-22T16:12:58.485Z,24
2017-04-22T16:14:10.595Z,24
2017-04-22T16:15:22.153Z,20
2017-04-22T16:16:33.272Z,20
2017-04-22T16:17:44.198Z,20
2017-04-22T16:18:54.788Z,20
2017-04-22T16:20:05.390Z,24
2017-04-22T16:21:16.440Z,20
2017-04-22T16:22:27.243Z,20
2017-04-22T16:23:38.360Z,20
2017-04-22T16:24:49.459Z,16
2017-04-22T16:26:00.490Z,20
2017-04-22T16:27:11.836Z,20
2017-04-22T16:28:22.792Z,16
2017-04-22T16:29:33.950Z,16
2017-04-22T16:30:44.688Z,20
2017-04-22T16:31:55.809Z,16
2017-04-22T16:33:07.873Z,16
2017-04-22T16:34:18.820Z,20
2017-04-22T16:35:29.126Z,20
2017-04-22T16:36:39.689Z,20
2017-04-22T16:37:51.013Z,24
2017-04-22T16:39:02.488Z,24
2017-04-22T16:40:14.691Z,28
2017-04-22T16:41:27.379Z,28
2017-04-22T16:42:38.292Z,28
2017-04-22T16:43:48.651Z,24
2017-04-22T16:44:59.599Z,24
2017-04-22T16:46:10.261Z,24
2017-04-22T16:47:21.205Z,24
2017-04-22T16:48:32.714Z,24
2017-04-22T16:49:43.800Z,20
2017-04-22T16:50:55.152Z,16